La Habra Heights, California
Current Conditions -  °F | °C
As of 1:19 AM on Tuesday 21 Oct 2014 (Local Time) from KFUL Reporting Station
Overcast Overcast  
Wind Chill: 67°   Ceiling: 1400
Heat Index: 67°   Visibility: 10mi
Dew Point: 60°   Wind: 0mph
Humidity: 79%   Direction: NA
Pressure: 29.9"   Gusts: NA
Location:  33.9421°N, 117.951°W
Report Text: KFUL 210819Z 00000KT 10SM OVC014 19/16 A2990 RMK AO2 T01940156 $
Loading
Personal Weather Stations






























Interactive Weather Map New forecast layout! Learn more

10-Day Weather Forecast

Advertisements
Track Severe Weather on mobile